Girdletree, Maryland
Current Conditions -  °F | °C
As of 9:54 AM on Saturday 25 Oct 2014 (Local Time) from KWAL Reporting Station
Clear Clear  
Wind Chill: 60°   Ceiling: Unl
Heat Index: 60°   Visibility: 10mi
Dew Point: 45°   Wind: 7mph
Humidity: 57%   Direction: 320°NW
Pressure: 29.96"   Gusts: NA
Location:  38.09°N, 75.4°W
Report Text: KWAL 251354Z AUTO 32006KT 10SM CLR 16/07 A2996 RMK AO2 SLP142 T01560072
Loading
Personal Weather Stations






























Interactive Weather Map
Tropical Storm Tracking
New forecast layout! Learn more

10-Day Weather Forecast

Advertisements
Track Severe Weather on mobile